createdAt,value
2018-01-25T00:00:41.731Z,3.03
2018-01-25T00:03:10.174Z,3.23
2018-01-25T00:05:38.274Z,3.00
2018-01-25T00:08:17.108Z,2.70
2018-01-25T00:10:45.230Z,3.73
2018-01-25T00:13:13.322Z,2.47
2018-01-25T00:15:41.434Z,6.43
2018-01-25T00:18:25.893Z,4.20
2018-01-25T00:20:54.002Z,2.87
2018-01-25T00:23:22.103Z,2.57
2018-01-25T00:25:50.224Z,4.60
2018-01-25T00:28:18.324Z,3.23
2018-01-25T00:30:46.436Z,2.50
2018-01-25T00:33:14.530Z,2.23
2018-01-25T00:35:43.537Z,7.23
2018-01-25T00:38:11.659Z,9.93
2018-01-25T00:40:39.777Z,6.50
2018-01-25T00:43:07.897Z,6.27
2018-01-25T00:45:35.982Z,4.90
2018-01-25T00:48:04.078Z,1.50
2018-01-25T00:50:32.196Z,3.23
2018-01-25T00:53:15.997Z,1.10
2018-01-25T00:55:44.111Z,1.00
2018-01-25T00:58:21.977Z,1.00
2018-01-25T01:00:50.095Z,1.53
2018-01-25T01:03:18.194Z,0.70
2018-01-25T01:05:52.386Z,1.07
2018-01-25T01:08:20.485Z,1.90
2018-01-25T01:10:52.507Z,1.17
2018-01-25T01:13:34.777Z,0.50
2018-01-25T01:16:02.878Z,1.17
2018-01-25T01:18:30.995Z,0.53
2018-01-25T01:20:59.085Z,0.73
2018-01-25T01:23:34.640Z,1.17
2018-01-25T01:26:02.743Z,3.63
2018-01-25T01:28:30.856Z,0.57
2018-01-25T01:30:58.964Z,1.97
2018-01-25T01:33:27.067Z,0.60
2018-01-25T01:35:55.172Z,1.47
2018-01-25T01:38:23.268Z,1.37
2018-01-25T01:40:59.731Z,2.30
2018-01-25T01:43:30.916Z,2.43
2018-01-25T01:45:59.014Z,3.87
2018-01-25T01:48:27.116Z,3.73
2018-01-25T01:50:55.213Z,2.93
2018-01-25T01:53:23.316Z,3.00
2018-01-25T01:55:51.417Z,2.80
2018-01-25T01:58:19.518Z,2.50
2018-01-25T02:00:47.633Z,3.07
2018-01-25T02:03:15.739Z,2.47
2018-01-25T02:05:43.822Z,3.33
2018-01-25T02:08:26.963Z,1.90
2018-01-25T02:10:55.049Z,1.57
2018-01-25T02:13:23.156Z,2.13
2018-01-25T02:15:51.259Z,1.43
2018-01-25T02:18:19.359Z,1.53
2018-01-25T02:20:48.890Z,1.20
2018-01-25T02:23:16.984Z,3.03
2018-01-25T02:25:45.073Z,1.27
2018-01-25T02:28:13.169Z,1.87
2018-01-25T02:30:41.288Z,3.23
2018-01-25T02:33:09.373Z,6.50
2018-01-25T02:35:37.476Z,6.17
2018-01-25T02:38:05.588Z,8.77
2018-01-25T02:40:33.669Z,9.13
2018-01-25T02:43:01.787Z,8.33
2018-01-25T02:45:29.880Z,5.10
2018-01-25T02:47:57.988Z,5.03
2018-01-25T02:50:26.152Z,3.20
2018-01-25T02:52:54.259Z,4.57
2018-01-25T02:55:22.385Z,4.50
2018-01-25T02:57:50.487Z,4.87
2018-01-25T03:00:18.592Z,3.27
2018-01-25T03:02:46.709Z,3.87
2018-01-25T03:05:14.797Z,3.87
2018-01-25T03:07:42.900Z,4.43
2018-01-25T03:10:10.997Z,7.57
2018-01-25T03:12:39.099Z,7.00
2018-01-25T03:15:07.193Z,6.13
2018-01-25T03:17:35.285Z,6.40
2018-01-25T03:20:15.776Z,4.17
2018-01-25T03:22:43.865Z,8.93
2018-01-25T03:25:11.994Z,4.43
2018-01-25T03:27:40.081Z,3.07
2018-01-25T03:30:09.113Z,4.07
2018-01-25T03:32:37.223Z,6.77
2018-01-25T03:35:05.312Z,3.13
2018-01-25T03:37:33.407Z,4.43
2018-01-25T03:40:01.495Z,4.20
2018-01-25T03:42:29.610Z,3.43
2018-01-25T03:44:57.702Z,5.50
2018-01-25T03:47:25.813Z,4.57
2018-01-25T03:49:53.902Z,2.00
2018-01-25T03:52:22.012Z,4.87
2018-01-25T03:54:50.106Z,3.20
2018-01-25T03:57:18.213Z,6.30
2018-01-25T03:59:46.294Z,3.20
2018-01-25T04:02:14.412Z,1.77
2018-01-25T04:04:51.173Z,3.03
2018-01-25T04:07:19.301Z,2.93
2018-01-25T04:09:47.357Z,4.13
2018-01-25T04:12:15.475Z,4.40
2018-01-25T04:14:43.570Z,3.80
2018-01-25T04:17:11.663Z,1.43
2018-01-25T04:19:43.557Z,2.70
2018-01-25T04:22:11.637Z,1.00
2018-01-25T04:24:39.733Z,2.03
2018-01-25T04:27:20.630Z,2.10
2018-01-25T04:29:48.729Z,3.13
2018-01-25T04:32:16.842Z,2.23
2018-01-25T04:34:44.946Z,1.30
2018-01-25T04:37:13.029Z,4.03
2018-01-25T04:39:41.132Z,3.57
2018-01-25T04:42:09.251Z,3.43
2018-01-25T04:44:38.287Z,5.80
2018-01-25T04:47:06.382Z,4.50
2018-01-25T04:49:34.469Z,3.43
2018-01-25T04:52:02.567Z,7.27
2018-01-25T04:54:38.375Z,4.93
2018-01-25T04:57:06.466Z,4.10
2018-01-25T04:59:34.565Z,8.97
2018-01-25T05:02:02.672Z,3.83
2018-01-25T05:04:30.772Z,5.47
2018-01-25T05:06:58.892Z,4.20
2018-01-25T05:09:27.918Z,3.70
2018-01-25T05:11:57.147Z,3.83
2018-01-25T05:14:25.263Z,4.57
2018-01-25T05:16:55.173Z,3.17
2018-01-25T05:19:23.280Z,5.97
2018-01-25T05:21:51.374Z,5.23
2018-01-25T05:24:19.479Z,5.07
2018-01-25T05:26:47.602Z,2.37
2018-01-25T05:29:15.681Z,3.57
2018-01-25T05:31:43.787Z,3.50
2018-01-25T05:34:16.312Z,6.90
2018-01-25T05:36:44.428Z,5.77
2018-01-25T05:39:12.528Z,2.77
2018-01-25T05:41:40.609Z,3.63
2018-01-25T05:47:10.220Z,8.47
2018-01-25T05:49:38.324Z,5.43
2018-01-25T05:52:06.431Z,4.43
2018-01-25T05:54:34.537Z,7.03
2018-01-25T05:57:02.626Z,2.67
2018-01-25T05:59:30.728Z,5.57
2018-01-25T06:01:58.822Z,6.73
2018-01-25T06:04:26.925Z,4.30
2018-01-25T06:06:55.009Z,4.63
2018-01-25T06:09:23.103Z,5.60
2018-01-25T06:11:51.219Z,6.37
2018-01-25T06:14:19.316Z,4.77
2018-01-25T06:16:47.427Z,7.63
2018-01-25T06:19:15.596Z,10.03
2018-01-25T06:21:43.698Z,4.53
2018-01-25T06:24:11.807Z,5.97
2018-01-25T06:26:39.945Z,3.20
2018-01-25T06:29:08.016Z,5.37
2018-01-25T06:31:36.116Z,11.73
2018-01-25T06:34:04.238Z,9.07
2018-01-25T06:36:32.340Z,6.20
2018-01-25T06:39:00.439Z,6.47
2018-01-25T06:41:40.603Z,6.20
2018-01-25T06:44:12.075Z,8.77
2018-01-25T06:46:42.105Z,5.23
2018-01-25T06:49:13.859Z,6.73
2018-01-25T06:51:41.963Z,3.87
2018-01-25T06:54:10.050Z,4.60
2018-01-25T06:56:40.139Z,7.20
2018-01-25T06:59:08.232Z,6.90
2018-01-25T07:01:36.335Z,8.40
2018-01-25T07:04:04.435Z,6.07
2018-01-25T07:06:32.525Z,4.10
2018-01-25T07:09:00.626Z,3.20
2018-01-25T07:11:28.713Z,5.50
2018-01-25T07:13:56.811Z,6.30
2018-01-25T07:16:24.910Z,5.67
2018-01-25T07:18:52.998Z,6.63
2018-01-25T07:21:21.111Z,5.70
2018-01-25T07:23:49.238Z,6.47
2018-01-25T07:26:17.341Z,7.23
2018-01-25T07:28:45.439Z,5.90
2018-01-25T07:31:18.634Z,8.23
2018-01-25T07:33:46.744Z,6.93
2018-01-25T07:36:14.875Z,6.63
2018-01-25T07:38:42.948Z,7.47
2018-01-25T07:41:11.055Z,6.90
2018-01-25T07:43:39.156Z,6.83
2018-01-25T07:46:07.291Z,7.73
2018-01-25T07:48:35.369Z,6.97
2018-01-25T07:51:03.472Z,8.50
2018-01-25T07:53:31.576Z,5.10
2018-01-25T07:55:59.662Z,6.77
2018-01-25T07:58:27.772Z,6.03
2018-01-25T08:00:55.865Z,6.90
2018-01-25T08:03:23.968Z,6.13
2018-01-25T08:05:52.066Z,8.87
2018-01-25T08:08:22.061Z,6.20
2018-01-25T08:10:50.179Z,7.60
2018-01-25T08:16:24.817Z,6.87
2018-01-25T08:18:52.994Z,9.87
2018-01-25T08:21:21.214Z,7.97
2018-01-25T08:23:49.452Z,7.30
2018-01-25T08:26:17.658Z,6.90
2018-01-25T08:28:45.966Z,6.63
2018-01-25T08:31:14.239Z,8.47
2018-01-25T08:33:42.410Z,9.83
2018-01-25T08:36:10.648Z,8.50
2018-01-25T08:38:38.932Z,14.70
2018-01-25T08:41:11.491Z,7.07
2018-01-25T08:43:39.664Z,11.97
2018-01-25T08:46:07.962Z,8.70
2018-01-25T08:48:36.205Z,7.83
2018-01-25T08:51:05.055Z,9.10
2018-01-25T08:53:33.480Z,7.10
2018-01-25T08:56:01.678Z,7.40
2018-01-25T08:58:29.976Z,12.30
2018-01-25T09:00:58.195Z,7.63
2018-01-25T09:03:26.460Z,10.03
2018-01-25T09:05:55.638Z,7.97
2018-01-25T09:08:23.916Z,10.80
2018-01-25T09:10:52.164Z,9.03
2018-01-25T09:13:20.376Z,10.13
2018-01-25T09:15:48.797Z,9.83
2018-01-25T09:18:17.082Z,10.73
2018-01-25T09:20:45.450Z,8.90
2018-01-25T09:23:13.652Z,8.63
2018-01-25T09:25:42.019Z,8.10
2018-01-25T09:28:10.250Z,12.53
2018-01-25T09:30:38.519Z,7.53
2018-01-25T09:33:06.674Z,9.63
2018-01-25T09:35:34.834Z,7.57
2018-01-25T09:39:06.133Z,10.83
2018-01-25T09:41:45.839Z,8.60
2018-01-25T09:44:23.714Z,8.73
2018-01-25T09:46:51.997Z,11.40
2018-01-25T09:49:21.523Z,9.77
2018-01-25T09:51:51.702Z,12.97
2018-01-25T09:54:20.407Z,7.90
2018-01-25T09:56:48.848Z,16.40
2018-01-25T09:59:17.336Z,11.60
2018-01-25T10:01:45.674Z,10.47
2018-01-25T10:04:17.618Z,10.83
2018-01-25T10:06:45.898Z,9.77
2018-01-25T10:09:14.486Z,11.10
2018-01-25T10:11:42.780Z,11.47
2018-01-25T10:14:10.991Z,12.17
2018-01-25T10:16:39.257Z,10.40
2018-01-25T10:19:07.409Z,9.67
2018-01-25T10:21:35.655Z,12.97
2018-01-25T10:24:04.026Z,9.53
2018-01-25T10:26:35.685Z,9.20
2018-01-25T10:29:04.858Z,11.87
2018-01-25T10:31:33.051Z,11.83
2018-01-25T10:34:01.306Z,9.07
2018-01-25T10:36:29.518Z,11.50
2018-01-25T10:38:57.802Z,12.73
2018-01-25T10:41:26.003Z,8.47
2018-01-25T10:43:55.499Z,11.00
2018-01-25T10:46:23.769Z,9.50
2018-01-25T10:48:52.026Z,8.83
2018-01-25T10:51:20.584Z,9.27
2018-01-25T10:53:48.917Z,11.43
2018-01-25T10:56:17.277Z,8.17
2018-01-25T10:58:45.549Z,14.30
2018-01-25T11:01:21.221Z,12.97
2018-01-25T11:03:49.635Z,10.07
2018-01-25T11:06:17.917Z,9.43
2018-01-25T11:08:46.474Z,9.90
2018-01-25T11:11:15.857Z,15.90
2018-01-25T11:13:44.793Z,14.17
2018-01-25T11:16:13.088Z,16.53
2018-01-25T11:18:41.388Z,11.73
2018-01-25T11:23:52.644Z,11.73
2018-01-25T11:26:20.923Z,14.37
2018-01-25T11:28:49.123Z,10.97
2018-01-25T11:31:18.696Z,14.00
2018-01-25T11:33:51.158Z,12.17
2018-01-25T11:36:19.385Z,13.13
2018-01-25T11:38:49.720Z,15.17
2018-01-25T11:43:56.697Z,14.47
2018-01-25T11:46:24.964Z,11.43
2018-01-25T11:51:28.000Z,12.47
2018-01-25T11:53:57.856Z,13.77
2018-01-25T11:56:29.409Z,11.17
2018-01-25T11:58:57.718Z,9.53
2018-01-25T12:01:26.433Z,9.73
2018-01-25T12:03:57.395Z,13.83
2018-01-25T12:06:26.945Z,14.20
2018-01-25T12:08:55.546Z,11.47
2018-01-25T12:11:24.067Z,9.43
2018-01-25T12:16:31.754Z,11.53
2018-01-25T12:19:01.158Z,15.07
2018-01-25T12:24:10.594Z,15.37
2018-01-25T12:26:39.054Z,9.37
2018-01-25T12:29:09.232Z,8.73
2018-01-25T12:31:38.541Z,12.90
2018-01-25T12:34:08.946Z,12.47
2018-01-25T12:36:42.768Z,18.43
2018-01-25T12:39:12.000Z,15.37
2018-01-25T12:41:44.621Z,11.00
2018-01-25T12:44:15.105Z,12.23
2018-01-25T12:46:44.429Z,12.63
2018-01-25T12:49:13.730Z,9.73
2018-01-25T12:51:52.656Z,12.63
2018-01-25T12:54:25.785Z,12.40
2018-01-25T12:56:59.973Z,14.40
2018-01-25T12:59:32.510Z,9.67
2018-01-25T13:02:01.942Z,15.13
2018-01-25T13:04:30.746Z,11.63
2018-01-25T13:07:05.152Z,14.77
2018-01-25T13:09:41.840Z,11.30
2018-01-25T13:12:11.996Z,10.90
2018-01-25T13:14:40.294Z,12.93
2018-01-25T13:17:08.574Z,11.40
2018-01-25T13:19:39.100Z,9.43
2018-01-25T13:22:13.625Z,8.47
2018-01-25T13:24:41.928Z,12.83
2018-01-25T13:27:10.199Z,12.93
2018-01-25T13:29:38.467Z,12.27
2018-01-25T13:32:06.884Z,11.53
2018-01-25T13:34:35.098Z,13.90
2018-01-25T13:37:05.380Z,14.40
2018-01-25T13:39:33.724Z,10.87
2018-01-25T13:42:06.400Z,14.03
2018-01-25T13:44:34.950Z,12.03
2018-01-25T13:47:10.553Z,11.93
2018-01-25T13:49:39.130Z,10.30
2018-01-25T13:52:07.480Z,16.67
2018-01-25T13:54:36.673Z,17.60
2018-01-25T13:57:24.516Z,165.40
2018-01-25T13:59:58.386Z,345.63
2018-01-25T14:02:26.656Z,74.97
2018-01-25T14:04:54.958Z,13.70
2018-01-25T14:07:23.228Z,11.10
2018-01-25T14:09:51.535Z,15.40
2018-01-25T14:12:21.576Z,12.30
2018-01-25T14:14:49.927Z,7.97
2018-01-25T14:17:18.244Z,15.67
2018-01-25T14:19:46.522Z,16.53
2018-01-25T14:22:18.458Z,35.47
2018-01-25T14:24:46.749Z,80.27
2018-01-25T14:27:14.936Z,17.53
2018-01-25T14:29:43.240Z,23.23
2018-01-25T14:32:11.380Z,8.43
2018-01-25T14:34:39.666Z,13.37
2018-01-25T14:37:11.206Z,9.43
2018-01-25T14:39:41.034Z,13.63
2018-01-25T14:42:09.714Z,13.07
2018-01-25T14:44:37.959Z,12.43
2018-01-25T14:47:06.243Z,11.90
2018-01-25T14:49:34.440Z,10.03
2018-01-25T14:52:03.520Z,10.00
2018-01-25T14:54:32.695Z,13.90
2018-01-25T14:57:00.894Z,12.60
2018-01-25T14:59:29.122Z,14.40
2018-01-25T15:01:57.436Z,11.10
2018-01-25T15:04:25.959Z,11.63
2018-01-25T15:06:54.198Z,13.17
2018-01-25T15:09:22.377Z,11.47
2018-01-25T15:11:50.573Z,8.97
2018-01-25T15:14:24.394Z,8.13
2018-01-25T15:16:52.679Z,13.67
2018-01-25T15:19:21.033Z,10.27
2018-01-25T15:21:49.203Z,9.63
2018-01-25T15:24:17.460Z,14.53
2018-01-25T15:26:50.586Z,13.33
2018-01-25T15:29:19.960Z,14.73
2018-01-25T15:31:48.179Z,12.03
2018-01-25T15:34:17.764Z,13.33
2018-01-25T15:36:46.034Z,19.40
2018-01-25T15:39:14.227Z,12.17
2018-01-25T15:41:42.510Z,12.43
2018-01-25T15:44:10.702Z,10.97
2018-01-25T15:46:48.214Z,10.07
2018-01-25T15:49:19.608Z,12.23
2018-01-25T15:51:48.803Z,9.90
2018-01-25T15:54:18.900Z,11.87
2018-01-25T15:56:47.560Z,13.53
2018-01-25T15:59:19.298Z,11.93
2018-01-25T16:01:47.402Z,12.50
2018-01-25T16:04:15.523Z,9.30
2018-01-25T16:06:45.134Z,13.23
2018-01-25T16:09:13.792Z,9.60
2018-01-25T16:11:41.907Z,10.77
2018-01-25T16:14:10.015Z,9.53
2018-01-25T16:16:38.197Z,9.13
2018-01-25T16:19:12.059Z,11.33
2018-01-25T16:21:40.159Z,10.10
2018-01-25T16:24:10.227Z,9.00
2018-01-25T16:26:38.344Z,11.67
2018-01-25T16:29:06.449Z,11.97
2018-01-25T16:31:34.578Z,11.67
2018-01-25T16:34:02.869Z,8.47
2018-01-25T16:36:45.224Z,8.43
2018-01-25T16:39:13.329Z,10.13
2018-01-25T16:41:41.465Z,6.13
2018-01-25T16:44:09.578Z,7.90
2018-01-25T16:46:43.348Z,6.60
2018-01-25T16:49:22.736Z,6.17
2018-01-25T16:52:02.212Z,4.53
2018-01-25T16:54:30.312Z,4.77
2018-01-25T16:56:58.402Z,3.13
2018-01-25T16:59:26.516Z,4.63
2018-01-25T17:02:02.774Z,5.53
2018-01-25T17:04:44.040Z,2.93
2018-01-25T17:07:12.151Z,3.37
2018-01-25T17:09:40.253Z,1.47
2018-01-25T17:12:08.356Z,3.07
2018-01-25T17:14:39.992Z,3.43
2018-01-25T17:17:14.388Z,5.90
2018-01-25T17:19:46.171Z,2.97
2018-01-25T17:22:14.279Z,2.77
2018-01-25T17:24:43.311Z,3.40
2018-01-25T17:27:11.891Z,5.07
2018-01-25T17:29:42.972Z,6.73
2018-01-25T17:32:11.096Z,2.83
2018-01-25T17:34:41.127Z,2.87
2018-01-25T17:37:10.148Z,6.33
2018-01-25T17:39:39.222Z,4.83
2018-01-25T17:42:10.365Z,6.63
2018-01-25T17:44:38.449Z,4.93
2018-01-25T17:47:08.539Z,3.47
2018-01-25T17:49:36.633Z,6.63
2018-01-25T17:52:08.870Z,5.20
2018-01-25T17:54:36.965Z,4.90
2018-01-25T17:57:05.077Z,7.17
2018-01-25T17:59:35.195Z,4.27
2018-01-25T18:02:05.265Z,3.60
2018-01-25T18:04:33.353Z,6.30
2018-01-25T18:07:01.468Z,3.73
2018-01-25T18:09:33.195Z,5.30
2018-01-25T18:12:01.289Z,2.97
2018-01-25T18:14:29.415Z,5.73
2018-01-25T18:16:57.511Z,3.90
2018-01-25T18:19:25.623Z,3.87
2018-01-25T18:21:54.651Z,3.80
2018-01-25T18:24:22.767Z,3.47
2018-01-25T18:26:50.853Z,2.97
2018-01-25T18:29:22.481Z,4.93
2018-01-25T18:31:50.577Z,6.40
2018-01-25T18:34:25.534Z,4.87
2018-01-25T18:36:54.550Z,6.47
2018-01-25T18:39:22.646Z,4.20
2018-01-25T18:41:50.752Z,4.27
2018-01-25T18:44:19.806Z,6.90
2018-01-25T18:46:47.907Z,7.63
2018-01-25T18:49:19.623Z,4.83
2018-01-25T18:51:47.717Z,4.70
2018-01-25T18:54:15.833Z,5.30
2018-01-25T18:56:54.247Z,8.53
2018-01-25T18:59:23.278Z,6.23
2018-01-25T19:01:51.384Z,9.63
2018-01-25T19:04:19.496Z,8.67
2018-01-25T19:06:47.606Z,8.03
2018-01-25T19:09:15.723Z,8.47
2018-01-25T19:11:49.631Z,6.73
2018-01-25T19:14:17.724Z,8.73
2018-01-25T19:16:45.833Z,6.37
2018-01-25T19:19:13.931Z,8.50
2018-01-25T19:21:42.027Z,5.10
2018-01-25T19:24:10.133Z,7.50
2018-01-25T19:26:38.247Z,6.70
2018-01-25T19:29:06.334Z,4.13
2018-01-25T19:31:36.428Z,3.47
2018-01-25T19:34:04.525Z,5.73
2018-01-25T19:36:32.625Z,8.03
2018-01-25T19:39:00.739Z,5.63
2018-01-25T19:41:28.830Z,8.23
2018-01-25T19:44:04.426Z,6.27
2018-01-25T19:46:32.513Z,5.20
2018-01-25T19:49:02.548Z,5.67
2018-01-25T19:51:31.554Z,8.20
2018-01-25T19:53:59.662Z,10.90
2018-01-25T19:56:27.736Z,9.23
2018-01-25T19:59:00.249Z,11.53
2018-01-25T20:01:28.420Z,7.07
2018-01-25T20:03:56.507Z,4.67
2018-01-25T20:06:28.143Z,9.60
2018-01-25T20:08:56.225Z,6.13
2018-01-25T20:11:24.330Z,5.73
2018-01-25T20:13:57.358Z,6.53
2018-01-25T20:16:25.468Z,8.43
2018-01-25T20:18:53.553Z,7.17
2018-01-25T20:21:21.664Z,6.70
2018-01-25T20:23:49.762Z,5.70
2018-01-25T20:26:17.857Z,3.80
2018-01-25T20:28:49.080Z,5.70
2018-01-25T20:31:17.240Z,7.10
2018-01-25T20:33:46.374Z,5.00
2018-01-25T20:36:14.461Z,7.90
2018-01-25T20:38:43.477Z,5.23
2018-01-25T20:41:11.660Z,8.70
2018-01-25T20:43:39.738Z,9.57
2018-01-25T20:46:14.983Z,11.53
2018-01-25T20:48:43.084Z,7.07
2018-01-25T20:51:11.257Z,6.47
2018-01-25T20:53:39.345Z,6.80
2018-01-25T20:56:07.456Z,7.43
2018-01-25T20:58:38.738Z,7.27
2018-01-25T21:01:06.839Z,8.93
2018-01-25T21:03:34.952Z,6.30
2018-01-25T21:06:04.979Z,5.97
2018-01-25T21:08:33.099Z,5.00
2018-01-25T21:11:01.201Z,9.33
2018-01-25T21:13:35.739Z,7.43
2018-01-25T21:16:05.754Z,6.10
2018-01-25T21:18:45.327Z,7.83
2018-01-25T21:21:13.435Z,28.47
2018-01-25T21:23:41.531Z,26.27
2018-01-25T21:26:15.501Z,24.10
2018-01-25T21:28:43.612Z,17.43
2018-01-25T21:31:15.834Z,15.43
2018-01-25T21:33:43.949Z,14.70
2018-01-25T21:36:26.505Z,13.77
2018-01-25T21:38:54.676Z,24.30
2018-01-25T21:41:33.011Z,27.10
2018-01-25T21:44:01.211Z,47.10
2018-01-25T21:46:29.378Z,108.70
2018-01-25T21:49:08.928Z,189.23
2018-01-25T21:51:37.082Z,82.13
2018-01-25T21:54:05.209Z,48.63
2018-01-25T21:56:37.091Z,34.60
2018-01-25T21:59:05.226Z,28.07
2018-01-25T22:01:33.352Z,15.63
2018-01-25T22:04:01.569Z,28.90
2018-01-25T22:06:29.704Z,75.90
2018-01-25T22:08:57.991Z,285.90
2018-01-25T22:11:26.166Z,314.63
2018-01-25T22:14:04.256Z,183.87
2018-01-25T22:16:32.430Z,712.63
2018-01-25T22:19:00.550Z,786.97
2018-01-25T22:21:28.776Z,638.30
2018-01-25T22:23:56.920Z,115.33
2018-01-25T22:26:25.060Z,40.37
2018-01-25T22:28:53.184Z,22.33
2018-01-25T22:31:21.331Z,13.33
2018-01-25T22:33:49.473Z,49.33
2018-01-25T22:36:17.624Z,91.23
2018-01-25T22:38:45.754Z,112.30
2018-01-25T22:41:14.516Z,51.83
2018-01-25T22:43:48.072Z,50.97
2018-01-25T22:46:16.188Z,55.97
2018-01-25T22:48:44.306Z,36.53
2018-01-25T22:51:12.775Z,18.97
2018-01-25T22:53:40.995Z,19.57
2018-01-25T22:56:09.153Z,14.87
2018-01-25T22:58:37.300Z,15.00
2018-01-25T23:01:05.473Z,16.43
2018-01-25T23:03:33.650Z,18.70
2018-01-25T23:06:01.933Z,15.77
2018-01-25T23:08:30.085Z,14.57
2018-01-25T23:10:58.264Z,14.40
2018-01-25T23:13:26.434Z,14.27
2018-01-25T23:15:54.666Z,15.77
2018-01-25T23:18:22.856Z,13.90
2018-01-25T23:20:54.782Z,16.07
2018-01-25T23:23:22.899Z,13.67
2018-01-25T23:25:51.015Z,16.00
2018-01-25T23:28:19.131Z,15.40
2018-01-25T23:30:47.221Z,18.17
2018-01-25T23:33:15.359Z,16.13
2018-01-25T23:35:43.474Z,14.83
2018-01-25T23:38:36.791Z,17.17
2018-01-25T23:41:04.901Z,14.07
2018-01-25T23:43:33.007Z,13.63
2018-01-25T23:46:01.115Z,13.63
2018-01-25T23:48:29.230Z,13.87
2018-01-25T23:51:12.439Z,11.17
2018-01-25T23:53:40.561Z,11.67
2018-01-25T23:56:08.667Z,12.77
2018-01-25T23:58:36.763Z,11.27
